Time;durP1;ratioP1;P1;durP2;ratioP2;P2;SDS_P1;SDS_P2;PMS_P1;PMS_P2;Temp;Humidity;BMP_temperature;BMP_pressure;BME280_temperature;BME280_humidity;BME280_pressure;Samples;Min_cycle;Max_cycle;Signal;HPM_P1;HPM_P2
2022/03/11 00:02:18;;;;;;;12.10;5.47;;;8.80;46.70;;;;;;5033541;28;20044;-79
2022/03/11 00:04:45;;;;;;;16.00;6.67;;;8.80;46.70;;;;;;5035956;28;20037;-79
2022/03/11 00:07:11;;;;;;;10.97;5.70;;;8.70;47.00;;;;;;5036904;28;20033;-79
2022/03/11 00:09:37;;;;;;;13.40;6.50;;;8.70;46.90;;;;;;5035943;28;20021;-79
2022/03/11 00:12:04;;;;;;;16.27;7.03;;;8.70;47.00;;;;;;5035742;28;20477;-79
2022/03/11 00:14:30;;;;;;;12.43;6.33;;;8.60;47.00;;;;;;5036911;28;20053;-79
2022/03/11 00:16:56;;;;;;;12.00;6.47;;;8.50;47.20;;;;;;5035580;28;20437;-79
2022/03/11 00:19:21;;;;;;;13.33;6.90;;;8.50;47.30;;;;;;5035820;28;20049;-79
2022/03/11 00:21:47;;;;;;;12.57;6.47;;;8.40;47.30;;;;;;5035570;28;20108;-80
2022/03/11 00:24:13;;;;;;;14.73;6.87;;;8.40;47.30;;;;;;5037423;28;20033;-79
2022/03/11 00:26:38;;;;;;;12.03;6.60;;;8.40;47.50;;;;;;5056590;28;20396;-79
2022/03/11 00:29:04;;;;;;;13.07;6.73;;;8.40;47.70;;;;;;5052650;28;20045;-79
2022/03/11 00:31:30;;;;;;;13.57;6.80;;;8.40;47.60;;;;;;5056535;28;20113;-79
2022/03/11 00:33:55;;;;;;;11.77;5.77;;;8.30;47.70;;;;;;5055259;28;20033;-79
2022/03/11 00:36:22;;;;;;;15.17;7.10;;;8.20;47.70;;;;;;5055110;28;20401;-79
2022/03/11 00:38:48;;;;;;;13.67;7.07;;;8.20;48.00;;;;;;5055393;28;20089;-79
2022/03/11 00:41:13;;;;;;;15.10;7.80;;;8.20;48.00;;;;;;5056275;28;20116;-79
2022/03/11 00:43:39;;;;;;;12.83;7.07;;;8.10;48.00;;;;;;5038559;28;20118;-79
2022/03/11 00:46:05;;;;;;;13.97;6.77;;;8.10;48.20;;;;;;5037075;28;20105;-79
2022/03/11 00:48:30;;;;;;;14.20;7.23;;;8.10;48.40;;;;;;5054799;28;20450;-79
2022/03/11 00:50:58;;;;;;;13.63;7.43;;;8.10;48.60;;;;;;5055050;28;20029;-79
2022/03/11 00:53:25;;;;;;;15.77;8.57;;;8.00;49.00;;;;;;5055984;28;20049;-79
2022/03/11 00:55:51;;;;;;;13.10;7.37;;;8.00;48.40;;;;;;5054880;28;20029;-79
2022/03/11 00:58:16;;;;;;;19.57;8.33;;;7.90;48.50;;;;;;5054976;28;20436;-79
2022/03/11 01:00:42;;;;;;;14.43;7.60;;;7.90;48.70;;;;;;5054945;28;20195;-79
2022/03/11 01:03:08;;;;;;;15.97;7.53;;;7.90;48.80;;;;;;5038177;28;20389;-79
2022/03/11 01:05:33;;;;;;;14.77;7.17;;;7.80;49.60;;;;;;5038151;28;20033;-79
2022/03/11 01:07:59;;;;;;;16.23;8.03;;;7.80;48.90;;;;;;5038004;28;20029;-79
2022/03/11 01:10:25;;;;;;;17.77;8.23;;;7.80;49.50;;;;;;5055732;28;20075;-79
2022/03/11 01:12:51;;;;;;;14.40;7.60;;;7.70;49.20;;;;;;5054488;28;20029;-79
2022/03/11 01:15:17;;;;;;;15.27;7.03;;;7.70;49.40;;;;;;5054995;28;20029;-79
2022/03/11 01:17:42;;;;;;;20.57;8.13;;;7.70;49.40;;;;;;5055747;28;20047;-79
2022/03/11 01:20:10;;;;;;;16.90;7.87;;;7.60;49.80;;;;;;5054352;28;20033;-79
2022/03/11 01:22:36;;;;;;;15.33;8.10;;;7.60;49.70;;;;;;5038343;28;20036;-79
2022/03/11 01:25:03;;;;;;;15.80;8.27;;;7.50;49.80;;;;;;5054237;28;20054;-79
2022/03/11 01:27:28;;;;;;;15.97;7.90;;;7.50;49.80;;;;;;5055318;28;20364;-79
2022/03/11 01:29:54;;;;;;;15.17;8.07;;;7.50;50.00;;;;;;5056034;28;20025;-79
2022/03/11 01:32:19;;;;;;;15.67;7.47;;;7.50;50.10;;;;;;5054397;28;20377;-79
2022/03/11 01:34:45;;;;;;;14.93;8.33;;;7.50;50.20;;;;;;5037486;28;20032;-79
2022/03/11 01:37:11;;;;;;;14.03;7.40;;;7.40;50.30;;;;;;5054051;28;20120;-79
2022/03/11 01:39:36;;;;;;;16.47;8.17;;;7.30;50.30;;;;;;5055305;28;20056;-79
2022/03/11 01:42:02;;;;;;;15.13;7.53;;;7.30;50.40;;;;;;5037461;28;20525;-79
2022/03/11 01:44:28;;;;;;;16.37;8.77;;;7.30;50.60;;;;;;5053866;28;20036;-79
2022/03/11 01:46:55;;;;;;;16.23;7.97;;;7.30;51.40;;;;;;5037366;28;20061;-79
2022/03/11 01:49:22;;;;;;;14.83;7.73;;;7.20;51.00;;;;;;5052252;28;20017;-79
2022/03/11 01:51:48;;;;;;;16.23;8.47;;;7.20;51.20;;;;;;5036917;28;20029;-79
2022/03/11 01:54:14;;;;;;;17.80;8.80;;;7.20;51.30;;;;;;5053713;28;20056;-79
2022/03/11 01:56:40;;;;;;;16.57;8.37;;;7.20;51.50;;;;;;5054607;28;20025;-79
2022/03/11 01:59:07;;;;;;;15.10;8.37;;;7.10;51.50;;;;;;5054916;28;20033;-79
2022/03/11 02:01:33;;;;;;;16.57;8.40;;;7.10;51.60;;;;;;5053738;28;20033;-79
2022/03/11 02:03:59;;;;;;;16.77;8.33;;;7.00;51.70;;;;;;5020626;28;20366;-79
2022/03/11 02:06:26;;;;;;;17.83;9.33;;;7.00;51.60;;;;;;5053537;28;20055;-79
2022/03/11 02:08:53;;;;;;;15.67;8.17;;;7.00;51.90;;;;;;5054715;28;20024;-79
2022/03/11 02:11:19;;;;;;;20.97;8.63;;;6.90;52.00;;;;;;5053320;28;20108;-79
2022/03/11 02:13:47;;;;;;;14.30;8.23;;;6.80;52.00;;;;;;5053616;28;20067;-79
2022/03/11 02:16:15;;;;;;;15.73;8.37;;;6.90;52.20;;;;;;5054501;28;20021;-79
2022/03/11 02:18:40;;;;;;;17.50;8.43;;;6.90;52.50;;;;;;5036923;28;20017;-79
2022/03/11 02:21:07;;;;;;;19.33;8.53;;;6.80;52.30;;;;;;5053278;28;20021;-79
2022/03/11 02:23:53;;;;;;;14.73;7.87;;;6.90;52.50;;;;;;5053252;28;20033;-79
2022/03/11 02:26:22;;;;;;;14.70;8.40;;;6.80;52.50;;;;;;5053305;28;20114;-79
2022/03/11 02:28:49;;;;;;;15.70;8.57;;;6.70;52.40;;;;;;5054466;28;20065;-79
2022/03/11 02:31:15;;;;;;;16.57;8.70;;;6.70;52.80;;;;;;5053175;28;20037;-79
2022/03/11 02:33:40;;;;;;;16.90;8.90;;;6.70;52.70;;;;;;5036343;28;20131;-79
2022/03/11 02:36:07;;;;;;;17.27;8.70;;;6.70;52.80;;;;;;5052897;28;20419;-79
2022/03/11 02:38:33;;;;;;;16.90;8.50;;;6.60;53.10;;;;;;5036783;28;20025;-79
2022/03/11 02:40:59;;;;;;;16.17;8.63;;;6.60;53.20;;;;;;5053037;28;20388;-79
2022/03/11 02:43:25;;;;;;;18.40;7.97;;;6.50;53.60;;;;;;5054852;28;20025;-79
2022/03/11 02:45:51;;;;;;;17.80;8.83;;;6.50;53.70;;;;;;5054323;28;20110;-79
2022/03/11 02:48:17;;;;;;;16.20;8.20;;;6.40;53.70;;;;;;5052718;28;20358;-79
2022/03/11 02:50:43;;;;;;;18.00;8.57;;;6.40;53.90;;;;;;5019686;28;20086;-79
2022/03/11 02:53:09;;;;;;;16.00;8.30;;;6.30;53.90;;;;;;5035915;28;20053;-79
2022/03/11 02:55:34;;;;;;;19.37;8.73;;;6.40;54.10;;;;;;5052550;28;20025;-79
2022/03/11 02:58:00;;;;;;;13.90;7.17;;;6.30;54.00;;;;;;5053807;28;20036;-79
2022/03/11 03:00:26;;;;;;;16.40;8.37;;;6.30;54.10;;;;;;5053799;28;20036;-79
2022/03/11 03:02:52;;;;;;;15.97;8.30;;;6.20;54.10;;;;;;5052667;28;20135;-79
2022/03/11 03:05:17;;;;;;;15.40;8.60;;;6.20;54.20;;;;;;5052503;28;20025;-79
2022/03/11 03:07:43;;;;;;;15.47;7.47;;;6.20;54.50;;;;;;5019226;28;20033;-79
2022/03/11 03:10:12;;;;;;;14.47;8.00;;;6.20;54.60;;;;;;5053585;28;20025;-79
2022/03/11 03:12:39;;;;;;;16.67;8.43;;;6.20;54.70;;;;;;5052773;28;20470;-79
2022/03/11 03:15:06;;;;;;;16.87;8.10;;;6.20;54.70;;;;;;5052180;28;20017;-79
2022/03/11 03:17:32;;;;;;;12.93;7.67;;;6.10;54.80;;;;;;5049734;28;20071;-79
2022/03/11 03:19:58;;;;;;;14.43;7.83;;;6.20;54.80;;;;;;5032363;28;20033;-79
2022/03/11 03:22:23;;;;;;;14.23;8.70;;;6.20;55.00;;;;;;5032081;28;20455;-79
2022/03/11 03:24:49;;;;;;;17.83;8.73;;;6.10;55.20;;;;;;5033484;28;20033;-79
2022/03/11 03:27:16;;;;;;;15.00;7.73;;;6.00;55.20;;;;;;5033400;28;20136;-79
2022/03/11 03:29:41;;;;;;;16.67;8.07;;;6.10;55.70;;;;;;5033605;28;20025;-79
2022/03/11 03:32:08;;;;;;;17.50;8.00;;;6.20;55.50;;;;;;5048659;28;20029;-79
2022/03/11 03:34:35;;;;;;;15.40;8.37;;;6.00;55.50;;;;;;5032235;28;20026;-79
2022/03/11 03:37:07;;;;;;;17.00;8.83;;;6.00;55.60;;;;;;5048281;28;20022;-79
2022/03/11 03:39:33;;;;;;;15.60;8.23;;;5.90;55.60;;;;;;5033218;28;20020;-79
2022/03/11 03:41:59;;;;;;;14.13;7.77;;;6.10;55.90;;;;;;5048632;28;20021;-79
2022/03/11 03:44:25;;;;;;;15.20;8.37;;;5.90;55.80;;;;;;5048443;28;20075;-79
2022/03/11 03:46:50;;;;;;;18.90;8.97;;;5.90;56.10;;;;;;5031987;28;20029;-79
2022/03/11 03:49:16;;;;;;;15.43;8.03;;;5.90;56.10;;;;;;5048501;28;20038;-79
2022/03/11 03:51:43;;;;;;;14.33;8.03;;;5.90;56.10;;;;;;5033107;28;20052;-79
2022/03/11 03:54:11;;;;;;;15.33;8.43;;;5.90;56.50;;;;;;5033122;28;20474;-79
2022/03/11 03:56:38;;;;;;;16.63;7.90;;;5.80;56.00;;;;;;5033161;28;20112;-79
2022/03/11 03:59:05;;;;;;;13.50;7.90;;;5.80;56.50;;;;;;5048537;28;20033;-79
2022/03/11 04:01:36;;;;;;;15.30;8.60;;;5.80;56.40;;;;;;5031910;28;20029;-79
2022/03/11 04:04:03;;;;;;;16.03;9.17;;;5.80;56.90;;;;;;5033166;28;20064;-79
2022/03/11 04:06:32;;;;;;;16.87;8.47;;;5.80;56.50;;;;;;5031953;28;20473;-79
2022/03/11 04:08:58;;;;;;;16.60;7.80;;;5.80;56.60;;;;;;5033085;28;20026;-78
2022/03/11 04:11:25;;;;;;;17.10;8.40;;;5.90;57.20;;;;;;5048372;28;20026;-77
2022/03/11 04:13:51;;;;;;;17.20;8.60;;;5.70;57.00;;;;;;5048351;28;20025;-78
2022/03/11 04:16:18;;;;;;;14.57;7.70;;;5.80;57.10;;;;;;5031830;28;20018;-78
2022/03/11 04:18:44;;;;;;;15.50;8.23;;;5.90;57.00;;;;;;5032151;28;20079;-78
2022/03/11 04:21:10;;;;;;;16.40;8.23;;;5.70;57.30;;;;;;5032860;28;20049;-78
2022/03/11 04:23:36;;;;;;;15.30;8.30;;;5.70;57.30;;;;;;5031786;28;20473;-78
2022/03/11 04:26:02;;;;;;;14.43;7.63;;;5.70;57.30;;;;;;5033320;28;20116;-78
2022/03/11 04:28:28;;;;;;;16.00;8.60;;;5.80;57.40;;;;;;5031881;28;20112;-78
2022/03/11 04:30:54;;;;;;;16.10;8.87;;;5.70;57.50;;;;;;5048146;28;20140;-78
2022/03/11 04:33:20;;;;;;;16.83;8.87;;;5.70;57.40;;;;;;5033972;28;20476;-78
2022/03/11 04:35:46;;;;;;;15.27;8.07;;;5.70;57.80;;;;;;5052657;28;20021;-78
2022/03/11 04:38:12;;;;;;;18.77;8.70;;;5.80;57.60;;;;;;5034746;28;20029;-78
2022/03/11 04:40:38;;;;;;;14.33;7.97;;;5.70;57.70;;;;;;5035065;28;20108;-78
2022/03/11 04:43:04;;;;;;;18.87;7.73;;;5.60;57.50;;;;;;5051398;28;20049;-78
2022/03/11 04:45:30;;;;;;;14.17;7.73;;;5.70;57.70;;;;;;5051424;28;20500;-78
2022/03/11 04:47:55;;;;;;;15.67;8.30;;;5.70;57.80;;;;;;5034708;28;20035;-78
2022/03/11 04:50:21;;;;;;;14.83;8.23;;;5.60;57.80;;;;;;5054236;28;20021;-78
2022/03/11 04:52:47;;;;;;;15.90;8.57;;;5.60;57.70;;;;;;5038110;28;20021;-78
2022/03/11 04:55:15;;;;;;;14.90;7.80;;;5.60;58.40;;;;;;5055966;28;20128;-78
2022/03/11 04:57:42;;;;;;;14.67;7.60;;;5.50;58.50;;;;;;5054878;28;20036;-78
2022/03/11 05:00:08;;;;;;;13.97;7.87;;;5.60;58.30;;;;;;5021834;28;20025;-78
2022/03/11 05:02:34;;;;;;;15.40;7.93;;;5.60;58.40;;;;;;5056314;28;20074;-78
2022/03/11 05:05:09;;;;;;;17.37;9.30;;;5.60;58.40;;;;;;5054922;28;20033;-78
2022/03/11 05:07:35;;;;;;;14.93;7.40;;;5.60;58.40;;;;;;5054553;28;20039;-78
2022/03/11 05:10:01;;;;;;;17.20;8.97;;;5.50;58.30;;;;;;5054683;28;20025;-78
2022/03/11 05:12:27;;;;;;;17.30;8.47;;;5.50;58.60;;;;;;5054439;28;20083;-78
2022/03/11 05:14:53;;;;;;;17.53;8.07;;;5.50;58.40;;;;;;5037925;28;20413;-78
2022/03/11 05:17:19;;;;;;;16.63;7.80;;;5.50;58.60;;;;;;5054445;28;20385;-78
2022/03/11 05:19:45;;;;;;;15.70;7.67;;;5.50;58.60;;;;;;5054554;28;20087;-79
2022/03/11 05:22:11;;;;;;;16.60;8.10;;;5.40;58.50;;;;;;5055906;28;20032;-79
2022/03/11 05:24:40;;;;;;;16.03;8.10;;;5.40;58.70;;;;;;5055438;28;20083;-79
2022/03/11 05:27:07;;;;;;;15.53;8.07;;;5.40;59.10;;;;;;5053939;28;20180;-78
2022/03/11 05:29:34;;;;;;;14.70;7.97;;;5.40;59.00;;;;;;5054360;28;20481;-78
2022/03/11 05:32:00;;;;;;;14.73;7.10;;;5.30;58.90;;;;;;5054359;28;20021;-78
2022/03/11 05:34:25;;;;;;;18.20;8.80;;;5.30;59.10;;;;;;5054038;28;20120;-79
2022/03/11 05:36:51;;;;;;;17.87;8.83;;;5.30;59.20;;;;;;5053968;28;20124;-79
2022/03/11 05:39:17;;;;;;;17.97;8.57;;;5.30;59.20;;;;;;5053808;28;20052;-79
2022/03/11 05:41:44;;;;;;;18.23;8.53;;;5.30;60.10;;;;;;5054071;28;20083;-79
2022/03/11 05:44:10;;;;;;;14.40;6.73;;;5.40;59.50;;;;;;5055072;28;20074;-79
2022/03/11 05:46:36;;;;;;;15.63;8.03;;;5.20;59.40;;;;;;5053653;28;20033;-79
2022/03/11 05:49:01;;;;;;;18.53;8.40;;;5.20;59.40;;;;;;5037560;28;20104;-79
2022/03/11 05:51:27;;;;;;;15.43;8.40;;;5.20;60.10;;;;;;5053610;28;20385;-79
2022/03/11 05:53:52;;;;;;;14.47;7.63;;;5.20;59.80;;;;;;5053610;28;20049;-79
2022/03/11 05:56:20;;;;;;;14.80;7.77;;;5.20;59.60;;;;;;5053582;28;20086;-78
2022/03/11 05:58:46;;;;;;;20.17;8.10;;;5.10;59.60;;;;;;5053545;28;20119;-79
2022/03/11 06:01:11;;;;;;;17.57;7.67;;;5.10;59.60;;;;;;5036984;28;20107;-79
2022/03/11 06:03:37;;;;;;;15.40;8.20;;;5.10;59.70;;;;;;5053481;28;20473;-79
2022/03/11 06:06:03;;;;;;;14.90;7.43;;;5.10;59.80;;;;;;5020411;28;20029;-79
2022/03/11 06:08:28;;;;;;;16.87;7.97;;;5.10;60.00;;;;;;5020254;28;20120;-79
2022/03/11 06:10:54;;;;;;;13.07;7.13;;;5.00;59.90;;;;;;5037002;28;20063;-79
2022/03/11 06:13:19;;;;;;;17.60;8.37;;;5.10;60.10;;;;;;5054679;28;20064;-79
2022/03/11 06:15:45;;;;;;;19.97;7.40;;;5.00;60.50;;;;;;5036722;28;20029;-78
2022/03/11 06:18:13;;;;;;;17.53;7.77;;;5.10;60.50;;;;;;5020238;28;20025;-78
2022/03/11 06:20:39;;;;;;;16.83;7.47;;;5.10;60.40;;;;;;5037083;28;20059;-79
2022/03/11 06:23:05;;;;;;;19.43;8.10;;;5.10;60.60;;;;;;5053251;28;20056;-79
2022/03/11 06:25:30;;;;;;;16.40;8.37;;;5.10;60.40;;;;;;5053286;28;20444;-79
2022/03/11 06:27:56;;;;;;;13.93;7.33;;;5.10;61.20;;;;;;5036467;28;20385;-79
2022/03/11 06:30:21;;;;;;;15.00;7.57;;;5.10;60.40;;;;;;5036514;28;20062;-78
2022/03/11 06:32:48;;;;;;;14.60;7.60;;;5.10;60.50;;;;;;5052978;28;20128;-79
2022/03/11 06:35:15;;;;;;;16.40;8.17;;;5.10;61.10;;;;;;5052817;28;20029;-79
2022/03/11 06:37:43;;;;;;;15.37;7.63;;;5.10;60.70;;;;;;5054130;28;20505;-79
2022/03/11 06:40:10;;;;;;;20.53;8.47;;;5.10;60.70;;;;;;5036191;28;20025;-79
2022/03/11 06:42:37;;;;;;;17.10;8.63;;;5.10;60.90;;;;;;5052674;28;20412;-79
2022/03/11 06:45:05;;;;;;;18.33;8.00;;;5.10;61.00;;;;;;5054055;28;20233;-79
2022/03/11 06:47:30;;;;;;;16.60;8.93;;;5.20;61.10;;;;;;5052626;28;20021;-79
2022/03/11 06:49:56;;;;;;;17.80;9.37;;;5.20;61.70;;;;;;5036042;28;20040;-79
2022/03/11 06:52:22;;;;;;;14.63;8.10;;;5.20;61.20;;;;;;5052484;28;20029;-79
2022/03/11 06:54:47;;;;;;;16.40;8.90;;;5.20;61.10;;;;;;5036455;28;20490;-79
2022/03/11 06:57:15;;;;;;;18.47;8.33;;;5.30;61.10;;;;;;5033800;28;20030;-79
2022/03/11 06:59:42;;;;;;;19.33;8.27;;;5.30;61.70;;;;;;5033108;28;20040;-79
2022/03/11 07:02:08;;;;;;;16.97;8.67;;;5.30;61.20;;;;;;5032400;28;20045;-78
2022/03/11 07:04:34;;;;;;;15.93;8.33;;;5.30;61.10;;;;;;5033609;28;20437;-79
2022/03/11 07:07:00;;;;;;;22.03;8.57;;;5.40;61.10;;;;;;5015719;28;20442;-78
2022/03/11 07:09:26;;;;;;;15.10;7.90;;;5.40;61.10;;;;;;5032463;28;20498;-78
2022/03/11 07:11:57;;;;;;;16.50;8.77;;;5.40;61.20;;;;;;5031793;28;20044;-78
2022/03/11 07:14:23;;;;;;;15.33;7.53;;;5.50;61.20;;;;;;5032233;28;20022;-78
2022/03/11 07:16:52;;;;;;;16.30;8.07;;;5.50;61.10;;;;;;5031945;28;20025;-78
2022/03/11 07:19:18;;;;;;;14.60;8.17;;;5.60;61.10;;;;;;5031751;28;20034;-79
2022/03/11 07:21:44;;;;;;;18.90;8.63;;;5.70;61.10;;;;;;5033001;28;20025;-79
2022/03/11 07:24:10;;;;;;;15.30;7.27;;;5.70;61.70;;;;;;5015587;28;20025;-78
2022/03/11 07:26:35;;;;;;;19.30;8.27;;;5.70;61.10;;;;;;5033113;28;20080;-79
2022/03/11 07:29:02;;;;;;;16.23;8.67;;;5.80;61.00;;;;;;5031898;28;20386;-79
2022/03/11 07:31:28;;;;;;;16.43;8.80;;;5.80;61.00;;;;;;5015896;28;20033;-79
2022/03/11 07:33:55;;;;;;;14.90;8.27;;;5.90;60.70;;;;;;5015394;28;20459;-79
2022/03/11 07:36:21;;;;;;;15.50;8.20;;;5.90;60.90;;;;;;5016026;28;20502;-79
2022/03/11 07:38:48;;;;;;;19.00;9.17;;;6.00;60.70;;;;;;5015644;28;20018;-79
2022/03/11 07:41:14;;;;;;;18.87;8.83;;;6.00;60.90;;;;;;5015905;28;20033;-79
2022/03/11 07:43:46;;;;;;;15.77;8.33;;;6.10;60.60;;;;;;5032113;28;20033;-79
2022/03/11 07:46:14;;;;;;;19.13;8.87;;;6.20;60.30;;;;;;5016364;28;20049;-79
2022/03/11 07:48:40;;;;;;;19.90;9.67;;;6.20;60.10;;;;;;5031951;28;20397;-78
2022/03/11 07:51:06;;;;;;;16.23;8.87;;;6.30;60.00;;;;;;5015919;28;20132;-78
2022/03/11 07:53:32;;;;;;;21.33;8.90;;;6.40;59.90;;;;;;5032979;28;20056;-79
2022/03/11 07:55:57;;;;;;;17.07;8.57;;;6.60;60.00;;;;;;5031992;28;20022;-78
2022/03/11 07:58:24;;;;;;;21.37;9.30;;;6.60;59.80;;;;;;5031836;28;20032;-78
2022/03/11 08:00:50;;;;;;;18.07;9.90;;;6.60;59.60;;;;;;5015534;28;20478;-78
2022/03/11 08:03:16;;;;;;;20.97;10.00;;;6.70;59.50;;;;;;5033093;28;20101;-78
2022/03/11 08:05:42;;;;;;;22.43;9.93;;;6.70;59.30;;;;;;5015440;28;20434;-79
2022/03/11 08:08:08;;;;;;;24.40;11.33;;;6.80;59.20;;;;;;5032902;28;20025;-80
2022/03/11 08:10:36;;;;;;;20.37;10.90;;;6.90;59.10;;;;;;5031720;28;20045;-79
2022/03/11 08:13:03;;;;;;;19.80;10.37;;;6.90;58.80;;;;;;5015794;28;20032;-80
2022/03/11 08:15:29;;;;;;;20.10;10.63;;;7.00;58.70;;;;;;5015253;28;20029;-80
2022/03/11 08:17:55;;;;;;;18.93;9.67;;;7.20;58.70;;;;;;5015220;28;20034;-81
2022/03/11 08:20:21;;;;;;;19.03;10.30;;;7.20;58.40;;;;;;5031784;28;20059;-79
2022/03/11 08:22:48;;;;;;;20.80;10.30;;;7.20;58.00;;;;;;5015864;28;20033;-79
2022/03/11 08:25:15;;;;;;;20.73;11.07;;;7.30;58.00;;;;;;5019358;28;20056;-80
2022/03/11 08:27:41;;;;;;;22.20;12.00;;;7.30;57.90;;;;;;5019053;28;20029;-79
2022/03/11 08:30:08;;;;;;;21.00;11.10;;;7.40;57.70;;;;;;5002919;28;20026;-80
2022/03/11 08:32:34;;;;;;;19.83;10.53;;;7.50;57.60;;;;;;5018846;28;20030;-79
2022/03/11 08:34:59;;;;;;;19.63;11.37;;;7.50;57.40;;;;;;5019372;28;20018;-79
2022/03/11 08:37:26;;;;;;;19.90;11.67;;;7.60;57.50;;;;;;5002485;28;20507;-80
2022/03/11 08:39:51;;;;;;;20.30;11.73;;;7.70;57.30;;;;;;5036664;28;20428;-80
2022/03/11 08:42:17;;;;;;;23.00;12.30;;;7.80;57.30;;;;;;5035222;28;20080;-80
2022/03/11 08:44:43;;;;;;;19.40;11.07;;;7.80;57.00;;;;;;5002417;28;20120;-81
2022/03/11 08:47:10;;;;;;;19.87;11.43;;;8.00;57.00;;;;;;5035100;28;20083;-81
2022/03/11 08:49:35;;;;;;;22.67;11.77;;;7.90;56.70;;;;;;5035154;28;20465;-79
2022/03/11 08:52:01;;;;;;;20.57;11.33;;;8.00;56.60;;;;;;5018604;28;20030;-81
2022/03/11 08:54:27;;;;;;;21.43;12.53;;;8.10;56.60;;;;;;5002074;28;20053;-82
2022/03/11 08:56:54;;;;;;;22.30;13.43;;;8.20;56.40;;;;;;5035129;28;20025;-85
2022/03/11 08:59:20;;;;;;;25.80;12.80;;;8.20;56.20;;;;;;5002466;28;20493;-83
2022/03/11 09:01:46;;;;;;;24.70;12.90;;;8.30;55.70;;;;;;5034909;28;20029;-80
2022/03/11 09:04:12;;;;;;;21.77;13.10;;;8.50;56.00;;;;;;5034867;28;20044;-79
2022/03/11 09:06:38;;;;;;;23.73;12.80;;;8.50;55.70;;;;;;5034724;28;20099;-78
2022/03/11 09:09:04;;;;;;;22.50;12.23;;;8.50;55.70;;;;;;5034685;28;20052;-79
2022/03/11 09:11:31;;;;;;;21.67;12.03;;;8.60;55.70;;;;;;5018312;28;20593;-79
2022/03/11 09:13:57;;;;;;;24.33;13.23;;;8.60;55.60;;;;;;5034724;28;20022;-81
2022/03/11 09:16:23;;;;;;;23.13;12.27;;;8.70;55.50;;;;;;5034442;28;20025;-80
2022/03/11 09:18:49;;;;;;;20.77;12.33;;;8.80;55.40;;;;;;5018313;28;20049;-81
2022/03/11 09:21:15;;;;;;;23.50;12.87;;;8.90;55.10;;;;;;5034599;28;20022;-79
2022/03/11 09:23:42;;;;;;;22.13;12.50;;;8.90;55.00;;;;;;5035781;28;20025;-79
2022/03/11 09:26:08;;;;;;;22.57;13.40;;;9.00;54.80;;;;;;5034450;28;20492;-79
2022/03/11 09:28:34;;;;;;;23.10;12.63;;;9.00;54.70;;;;;;5017854;28;20065;-79
2022/03/11 09:31:01;;;;;;;22.33;11.70;;;9.20;54.70;;;;;;5034332;28;20032;-81
2022/03/11 09:33:27;;;;;;;24.30;13.80;;;9.20;54.40;;;;;;5018397;28;20112;-80
2022/03/11 09:35:53;;;;;;;24.07;13.30;;;9.30;54.20;;;;;;5017459;28;20101;-80
2022/03/11 09:38:19;;;;;;;29.83;14.90;;;9.40;54.30;;;;;;5035692;28;20025;-81
2022/03/11 09:40:45;;;;;;;23.27;13.83;;;9.40;54.20;;;;;;5035447;28;20060;-82
2022/03/11 09:43:12;;;;;;;23.07;15.00;;;9.50;54.10;;;;;;5017901;28;20022;-81
2022/03/11 09:45:38;;;;;;;23.23;13.73;;;9.60;53.90;;;;;;5017776;28;20033;-82
2022/03/11 09:48:05;;;;;;;29.23;14.40;;;9.60;53.80;;;;;;5017478;28;20049;-81
2022/03/11 09:50:31;;;;;;;23.87;14.30;;;9.70;53.70;;;;;;5034230;28;20030;-80
2022/03/11 09:52:58;;;;;;;21.87;14.37;;;9.80;53.30;;;;;;5017451;28;20042;-83
2022/03/11 09:55:24;;;;;;;24.13;14.33;;;9.80;53.20;;;;;;5017620;28;20022;-80
2022/03/11 09:57:49;;;;;;;23.63;13.80;;;10.00;53.10;;;;;;5034991;28;20155;-80
2022/03/11 10:00:16;;;;;;;25.90;15.13;;;10.00;53.10;;;;;;5017192;28;20026;-83
2022/03/11 10:02:45;;;;;;;23.80;13.87;;;10.10;53.60;;;;;;5017186;28;20044;-81
2022/03/11 10:05:12;;;;;;;26.03;13.90;;;10.30;52.80;;;;;;5044904;28;20024;-83
2022/03/11 10:07:37;;;;;;;22.73;13.73;;;10.40;52.40;;;;;;5036248;28;20388;-81
2022/03/11 10:10:18;;;;;;;23.60;14.00;;;10.60;52.10;;;;;;5036979;28;20116;-81
2022/03/11 10:12:46;;;;;;;25.97;14.10;;;11.00;52.00;;;;;;5053352;28;20025;-80
2022/03/11 10:15:13;;;;;;;25.27;14.70;;;11.40;51.80;;;;;;5053831;28;20025;-82
2022/03/11 10:17:45;;;;;;;19.77;11.98;;;11.80;51.50;;;;;;5053304;28;20033;-81
2022/03/11 10:20:13;;;;;;;23.73;12.32;;;12.30;51.10;;;;;;5053266;28;20393;-80
2022/03/11 10:22:40;;;;;;;19.98;11.85;;;13.00;50.60;;;;;;5053531;28;20062;-86
2022/03/11 10:25:17;;;;;;;18.90;11.98;;;13.80;50.10;;;;;;5053223;28;20025;-82
2022/03/11 10:28:12;;;;;;;18.67;10.82;;;14.60;49.10;;;;;;5053236;28;20064;-82
2022/03/11 10:30:39;;;;;;;;;;;15.50;47.80;;;;;;5053548;28;20496;-84
2022/03/11 10:33:12;;;;;;;17.75;11.80;;;16.20;45.50;;;;;;5053028;28;19905;-82
2022/03/11 10:35:44;;;;;;;14.15;9.57;;;16.90;45.20;;;;;;5052933;28;20071;-81
2022/03/11 10:38:15;;;;;;;15.73;10.48;;;17.50;44.20;;;;;;5053048;28;20040;-81
2022/03/11 10:40:51;;;;;;;20.08;12.15;;;18.10;43.00;;;;;;5053027;28;20025;-81
2022/03/11 10:43:19;;;;;;;15.27;11.25;;;18.60;42.10;;;;;;5052760;28;20025;-84
2022/03/11 10:45:55;;;;;;;16.48;11.55;;;19.20;41.50;;;;;;5050519;28;20100;-80
2022/03/11 10:48:51;;;;;;;15.02;10.80;;;19.60;40.20;;;;;;5053357;28;20029;-82
2022/03/11 10:51:31;;;;;;;15.75;10.82;;;20.20;39.80;;;;;;5052472;28;20032;-84
2022/03/11 10:53:58;;;;;;;16.70;11.15;;;20.70;38.40;;;;;;5051705;28;20040;-80
2022/03/11 10:56:39;;;;;;;15.10;11.60;;;21.00;38.40;;;;;;5053133;28;20108;-86
2022/03/11 10:59:28;;;;;;;17.67;11.95;;;21.40;36.90;;;;;;5052997;28;20428;-83
2022/03/11 11:01:56;;;;;;;24.52;11.85;;;21.60;34.90;;;;;;5052511;28;20132;-87
2022/03/11 11:04:23;;;;;;;17.48;10.85;;;21.70;35.10;;;;;;5052479;28;20124;-82
2022/03/11 11:06:49;;;;;;;16.67;11.15;;;21.80;35.20;;;;;;5053701;28;20032;-83
2022/03/11 11:09:17;;;;;;;14.38;10.60;;;21.90;35.40;;;;;;5052110;28;20107;-84
2022/03/11 11:11:43;;;;;;;14.05;10.82;;;22.20;35.20;;;;;;5052508;28;20569;-80
2022/03/11 11:14:10;;;;;;;15.13;10.57;;;22.60;35.00;;;;;;5052173;28;20112;-81
2022/03/11 11:16:44;;;;;;;16.02;10.20;;;22.80;34.40;;;;;;5053600;28;20464;-82
2022/03/11 11:19:16;;;;;;;14.65;10.43;;;23.10;33.70;;;;;;5035652;28;20028;-81
2022/03/11 11:21:43;;;;;;;17.95;10.43;;;23.30;33.60;;;;;;5052149;28;20024;-86
2022/03/11 11:24:21;;;;;;;13.57;10.27;;;23.50;33.40;;;;;;5052167;28;20017;-81
2022/03/11 11:26:49;;;;;;;14.75;11.45;;;23.80;32.90;;;;;;5052470;28;20393;-81
2022/03/11 11:29:21;;;;;;;17.58;10.73;;;23.90;32.20;;;;;;5052276;28;20025;-83
2022/03/11 11:31:49;;;;;;;15.35;11.32;;;24.10;32.00;;;;;;5052169;28;20028;-84
2022/03/11 11:34:33;;;;;;;17.65;11.23;;;24.30;31.80;;;;;;5019722;28;20492;-81
2022/03/11 11:37:02;;;;;;;16.35;11.27;;;24.50;31.50;;;;;;5052633;28;20029;-84
2022/03/11 11:39:51;;;;;;;15.30;10.88;;;24.60;31.30;;;;;;5019662;28;20025;-81
2022/03/11 11:42:19;;;;;;;15.27;11.02;;;24.60;31.00;;;;;;5052373;28;20124;-85
2022/03/11 11:44:45;;;;;;;15.25;10.77;;;24.80;31.30;;;;;;5052106;28;20108;-82
2022/03/11 11:47:16;;;;;;;12.52;9.43;;;25.10;30.60;;;;;;5051806;28;20116;-80
2022/03/11 11:49:43;;;;;;;15.65;10.80;;;25.20;30.40;;;;;;5053229;28;20029;-82
2022/03/11 11:52:12;;;;;;;14.45;11.35;;;25.40;30.10;;;;;;5052762;28;20021;-85
2022/03/11 11:54:40;;;;;;;17.60;11.23;;;25.60;30.00;;;;;;5051784;28;20094;-85
2022/03/11 11:57:07;;;;;;;16.00;11.68;;;25.70;29.90;;;;;;5052351;28;20017;-85
2022/03/11 11:59:37;;;;;;;19.60;11.75;;;25.60;29.50;;;;;;5056386;28;20028;-84
2022/03/11 12:02:23;;;;;;;15.00;11.50;;;25.50;29.50;;;;;;5056040;28;20037;-85
2022/03/11 12:04:50;;;;;;;15.60;10.80;;;25.50;29.60;;;;;;5057413;28;20051;-89
2022/03/11 12:07:17;;;;;;;17.10;11.35;;;25.50;29.50;;;;;;5056152;28;20448;-86
2022/03/11 12:10:00;;;;;;;15.82;10.63;;;25.40;29.40;;;;;;5055837;28;20140;-88
2022/03/11 12:12:35;;;;;;;16.60;10.10;;;25.40;29.40;;;;;;5057228;28;20381;-86
2022/03/11 12:15:01;;;;;;;15.80;11.32;;;25.40;29.30;;;;;;5055781;28;20500;-83
2022/03/11 12:17:40;;;;;;;18.02;12.27;;;25.50;29.30;;;;;;5056612;28;20032;-84
2022/03/11 12:20:24;;;;;;;14.90;11.25;;;25.60;29.30;;;;;;5056971;28;20061;-81
2022/03/11 12:23:12;;;;;;;13.35;10.35;;;25.70;29.30;;;;;;5055550;28;20025;-84
2022/03/11 12:25:46;;;;;;;16.48;11.48;;;25.90;29.90;;;;;;5056281;28;20017;-86
2022/03/11 12:28:12;;;;;;;17.23;11.55;;;26.20;29.50;;;;;;5055570;28;20032;-81
2022/03/11 12:30:46;;;;;;;17.67;11.50;;;26.40;29.20;;;;;;5057048;28;20029;-81
2022/03/11 12:33:21;;;;;;;14.43;11.30;;;26.60;29.00;;;;;;5055459;28;20017;-84
2022/03/11 12:35:50;;;;;;;16.70;10.80;;;26.70;28.80;;;;;;5057221;28;20032;-85
2022/03/11 12:38:18;;;;;;;14.80;11.32;;;26.70;28.60;;;;;;5056051;28;20017;-84
2022/03/11 12:40:45;;;;;;;14.82;12.13;;;26.60;28.60;;;;;;5057172;28;20075;-86
2022/03/11 12:43:12;;;;;;;14.57;10.75;;;26.60;28.60;;;;;;5055709;28;20033;-82